Time;durP1;ratioP1;P1;durP2;ratioP2;P2;SDS_P1;SDS_P2;PMS_P1;PMS_P2;Temp;Humidity;BMP_temperature;BMP_pressure;BME280_temperature;BME280_humidity;BME280_pressure;Samples;Min_cycle;Max_cycle;Signal;HPM_P1;HPM_P2
2021/07/20 00:01:08;;;;;;;8.55;4.70;;;20.00;80.30;;;;;;5111191;28;20115;-66
2021/07/20 00:03:33;;;;;;;10.18;4.28;;;20.00;80.30;;;;;;5112377;28;20110;-66
2021/07/20 00:05:59;;;;;;;8.10;4.13;;;20.00;80.30;;;;;;5112019;28;20074;-67
2021/07/20 00:08:24;;;;;;;8.93;4.47;;;20.00;80.20;;;;;;5112134;28;20381;-67
2021/07/20 00:10:54;;;;;;;8.63;4.50;;;20.00;80.20;;;;;;5112317;28;20073;-65
2021/07/20 00:13:19;;;;;;;7.45;4.13;;;20.00;80.20;;;;;;5112098;28;20047;-66
2021/07/20 00:15:46;;;;;;;7.60;4.15;;;20.00;80.20;;;;;;5111970;28;20473;-66
2021/07/20 00:18:17;;;;;;;7.60;4.40;;;20.00;80.30;;;;;;5111704;28;20046;-66
2021/07/20 00:20:43;;;;;;;8.57;4.40;;;20.00;80.20;;;;;;5112187;28;20451;-66
2021/07/20 00:23:10;;;;;;;9.50;4.45;;;20.00;80.30;;;;;;5113207;28;20107;-67
2021/07/20 00:25:36;;;;;;;9.20;4.60;;;20.00;80.30;;;;;;5131075;27;20567;-66
2021/07/20 00:28:02;;;;;;;10.00;4.72;;;20.00;80.40;;;;;;5132468;27;20141;-66
2021/07/20 00:30:27;;;;;;;8.32;4.38;;;20.00;80.30;;;;;;5132537;28;20034;-66
2021/07/20 00:32:53;;;;;;;7.90;4.47;;;20.00;80.20;;;;;;5119286;28;20495;-66
2021/07/20 00:35:19;;;;;;;7.97;4.10;;;20.00;80.20;;;;;;5109964;28;20019;-65
2021/07/20 00:37:45;;;;;;;9.93;4.82;;;20.00;80.30;;;;;;5109757;28;20031;-66
2021/07/20 00:40:14;;;;;;;8.77;4.70;;;20.00;80.30;;;;;;5110867;28;20031;-65
2021/07/20 00:42:40;;;;;;;8.68;4.68;;;20.00;80.30;;;;;;5111676;28;20107;-66
2021/07/20 00:45:09;;;;;;;7.57;4.40;;;20.00;80.30;;;;;;5111330;28;20086;-66
2021/07/20 00:47:35;;;;;;;7.63;3.92;;;20.10;80.30;;;;;;5111789;28;20016;-66
2021/07/20 00:50:02;;;;;;;7.38;4.05;;;20.00;80.30;;;;;;5110520;28;20080;-66
2021/07/20 00:52:28;;;;;;;8.30;4.22;;;20.00;80.30;;;;;;5110507;28;20499;-66
2021/07/20 00:54:53;;;;;;;8.07;4.30;;;20.00;80.20;;;;;;5110192;28;20019;-68
2021/07/20 00:57:20;;;;;;;8.40;4.30;;;20.00;80.20;;;;;;5111792;28;20408;-66
2021/07/20 00:59:45;;;;;;;9.57;4.95;;;20.00;80.30;;;;;;5110501;28;20438;-66
2021/07/20 01:02:13;;;;;;;8.00;4.53;;;20.00;80.30;;;;;;5112705;28;20052;-66
2021/07/20 01:04:39;;;;;;;7.68;4.25;;;20.00;80.30;;;;;;5111664;28;20503;-66
2021/07/20 01:07:05;;;;;;;8.70;4.00;;;20.00;80.30;;;;;;5116389;28;20109;-66
2021/07/20 01:09:32;;;;;;;8.75;4.57;;;20.00;80.30;;;;;;5130810;27;20038;-66
2021/07/20 01:11:58;;;;;;;7.88;4.50;;;20.00;80.30;;;;;;5131565;28;20019;-66
2021/07/20 01:14:25;;;;;;;7.50;4.38;;;20.00;80.30;;;;;;5131726;28;20063;-67
2021/07/20 01:16:51;;;;;;;7.00;4.30;;;20.00;80.40;;;;;;5129760;28;20019;-66
2021/07/20 01:19:17;;;;;;;7.65;4.28;;;20.00;80.30;;;;;;5125865;28;20027;-67
2021/07/20 01:21:43;;;;;;;7.28;4.00;;;20.00;80.30;;;;;;5110867;28;20137;-67
2021/07/20 01:24:11;;;;;;;7.43;4.05;;;20.00;80.30;;;;;;5119878;28;20610;-67
2021/07/20 01:26:37;;;;;;;7.97;4.32;;;20.00;80.20;;;;;;5129819;28;20023;-67
2021/07/20 01:29:05;;;;;;;8.40;4.18;;;20.00;80.30;;;;;;5133735;27;20046;-66
2021/07/20 01:31:35;;;;;;;7.53;4.45;;;20.00;80.30;;;;;;5144630;27;20434;-67
2021/07/20 01:34:01;;;;;;;7.97;4.43;;;20.00;80.30;;;;;;5133924;27;20147;-67
2021/07/20 01:36:29;;;;;;;7.78;4.47;;;20.00;80.30;;;;;;5134696;27;20486;-66
2021/07/20 01:38:56;;;;;;;7.55;4.30;;;20.00;80.40;;;;;;5134516;27;20084;-67
2021/07/20 01:41:22;;;;;;;7.22;4.07;;;20.00;80.40;;;;;;5134804;27;20027;-67
2021/07/20 01:43:54;;;;;;;7.63;4.32;;;20.00;80.40;;;;;;5135017;27;20023;-64
2021/07/20 01:46:21;;;;;;;7.55;4.22;;;20.00;80.40;;;;;;5132901;27;20118;-67
2021/07/20 01:48:50;;;;;;;9.82;4.38;;;20.00;80.40;;;;;;5134877;27;20098;-66
2021/07/20 01:51:16;;;;;;;7.30;3.85;;;20.00;80.30;;;;;;5133135;27;20054;-66
2021/07/20 01:53:42;;;;;;;7.40;3.67;;;20.00;80.30;;;;;;5134314;27;20062;-66
2021/07/20 01:56:10;;;;;;;7.38;3.70;;;20.00;80.30;;;;;;5125848;27;20043;-66
2021/07/20 01:58:43;;;;;;;7.75;4.35;;;20.00;80.40;;;;;;5114148;28;20028;-67
2021/07/20 02:01:41;;;;;;;7.07;4.10;;;20.00;80.40;;;;;;5112338;28;20503;-66
2021/07/20 02:09:34;;;;;;;10.43;4.28;;;20.00;80.30;;;;;;5114145;28;20126;-67
2021/07/20 02:12:10;;;;;;;7.72;4.25;;;20.00;80.30;;;;;;5113546;28;20032;-66
2021/07/20 02:14:41;;;;;;;6.93;3.88;;;20.00;80.30;;;;;;5113153;28;20064;-67
2021/07/20 02:17:09;;;;;;;7.47;3.95;;;20.00;80.30;;;;;;5120147;27;20027;-66
2021/07/20 02:19:39;;;;;;;9.85;4.22;;;20.00;80.30;;;;;;5145901;27;20512;-66
2021/07/20 02:22:06;;;;;;;7.82;4.28;;;20.00;80.30;;;;;;5131989;27;20055;-66
2021/07/20 02:24:35;;;;;;;9.18;4.43;;;20.00;80.30;;;;;;5132452;27;20716;-65
2021/07/20 02:27:04;;;;;;;6.88;4.15;;;20.00;80.30;;;;;;5134125;27;20782;-66
2021/07/20 02:29:30;;;;;;;8.98;4.32;;;20.00;80.30;;;;;;5133647;27;20031;-66
2021/07/20 02:31:58;;;;;;;7.60;4.13;;;20.00;80.40;;;;;;5133969;27;20033;-67
2021/07/20 02:34:29;;;;;;;8.55;4.57;;;20.00;80.40;;;;;;5133618;27;20023;-66
2021/07/20 02:36:56;;;;;;;7.15;3.85;;;20.00;80.30;;;;;;5132198;27;20027;-67
2021/07/20 02:39:23;;;;;;;7.70;3.70;;;20.00;80.60;;;;;;5133912;27;20033;-65
2021/07/20 02:41:50;;;;;;;8.02;4.13;;;20.00;80.90;;;;;;5133424;27;20114;-66
2021/07/20 02:44:17;;;;;;;7.80;3.90;;;20.00;80.90;;;;;;5133248;27;20031;-66
2021/07/20 02:46:43;;;;;;;9.43;3.90;;;20.00;80.70;;;;;;5133604;27;20451;-66
2021/07/20 02:49:10;;;;;;;6.78;4.00;;;20.00;80.50;;;;;;5133625;27;20023;-66
2021/07/20 02:51:36;;;;;;;7.28;4.05;;;20.00;80.60;;;;;;5133122;27;20035;-66
2021/07/20 02:54:02;;;;;;;7.47;4.10;;;20.00;80.50;;;;;;5132357;27;20110;-67
2021/07/20 02:56:29;;;;;;;7.90;3.88;;;20.00;80.50;;;;;;5120529;27;20065;-65
2021/07/20 02:59:02;;;;;;;7.53;3.92;;;20.00;80.60;;;;;;5112526;28;20098;-66
2021/07/20 03:01:29;;;;;;;7.78;3.92;;;20.00;80.50;;;;;;5112712;28;20030;-65
2021/07/20 03:03:55;;;;;;;8.10;4.10;;;20.00;80.50;;;;;;5111515;28;20032;-63
2021/07/20 03:06:23;;;;;;;6.55;3.90;;;20.00;80.60;;;;;;5112001;28;20023;-66
2021/07/20 03:08:52;;;;;;;6.93;3.70;;;20.00;80.60;;;;;;5112777;28;20081;-66
2021/07/20 03:11:18;;;;;;;7.63;4.35;;;20.00;80.60;;;;;;5112682;28;20023;-67
2021/07/20 03:13:50;;;;;;;7.03;3.78;;;20.00;80.60;;;;;;5112212;28;20481;-67
2021/07/20 03:16:17;;;;;;;6.43;3.78;;;19.90;80.60;;;;;;5112146;28;20031;-66
2021/07/20 03:18:44;;;;;;;6.80;3.88;;;20.00;80.60;;;;;;5112609;28;20020;-66
2021/07/20 03:21:12;;;;;;;6.78;3.92;;;20.00;80.60;;;;;;5112030;28;20039;-65
2021/07/20 03:23:38;;;;;;;7.65;3.80;;;19.90;80.50;;;;;;5117665;27;20106;-66
2021/07/20 03:26:03;;;;;;;6.50;3.70;;;20.00;80.60;;;;;;5132661;27;20055;-66
2021/07/20 03:28:30;;;;;;;7.18;3.92;;;20.00;80.60;;;;;;5132389;27;20035;-66
2021/07/20 03:30:56;;;;;;;7.65;3.70;;;19.90;80.60;;;;;;5132701;27;20537;-65
2021/07/20 03:33:24;;;;;;;7.18;4.00;;;20.00;80.70;;;;;;5132862;27;20107;-66
2021/07/20 03:35:51;;;;;;;7.38;3.80;;;20.00;80.80;;;;;;5124589;27;20044;-66
2021/07/20 03:38:18;;;;;;;6.35;3.35;;;20.00;80.80;;;;;;5119784;27;20030;-66
2021/07/20 03:40:46;;;;;;;7.28;3.60;;;19.90;80.80;;;;;;5111115;28;20413;-67
2021/07/20 03:43:12;;;;;;;8.38;4.57;;;20.00;80.80;;;;;;5111571;28;20055;-66
2021/07/20 03:45:37;;;;;;;7.18;3.50;;;20.00;80.80;;;;;;5111664;28;20027;-66
2021/07/20 03:48:04;;;;;;;6.43;3.78;;;20.00;80.90;;;;;;5111903;28;20034;-66
2021/07/20 03:50:30;;;;;;;7.40;3.70;;;19.90;80.90;;;;;;5111901;28;20031;-66
2021/07/20 03:52:57;;;;;;;8.70;4.30;;;20.00;80.90;;;;;;5110930;28;20019;-65
2021/07/20 03:55:23;;;;;;;6.65;3.38;;;20.00;80.80;;;;;;5113731;27;20041;-66
2021/07/20 03:57:49;;;;;;;8.52;4.00;;;19.90;80.80;;;;;;5132181;27;20015;-66
2021/07/20 04:00:15;;;;;;;9.27;4.13;;;19.90;80.90;;;;;;5131898;27;20079;-65
2021/07/20 04:02:50;;;;;;;7.15;3.97;;;19.90;80.80;;;;;;5132278;27;20023;-65
2021/07/20 04:05:17;;;;;;;8.32;4.05;;;20.00;80.90;;;;;;5132062;27;20071;-67
2021/07/20 04:07:45;;;;;;;9.73;4.10;;;19.90;80.90;;;;;;5131729;27;20492;-66
2021/07/20 04:10:13;;;;;;;6.80;3.67;;;19.90;80.90;;;;;;5131863;27;20031;-66
2021/07/20 04:12:40;;;;;;;7.78;3.63;;;20.00;81.00;;;;;;5132232;27;20057;-66
2021/07/20 04:15:07;;;;;;;7.80;3.80;;;20.00;81.00;;;;;;5131478;27;20038;-66
2021/07/20 04:17:35;;;;;;;7.53;3.90;;;20.00;80.90;;;;;;5130734;27;20484;-66
2021/07/20 04:20:00;;;;;;;8.38;3.95;;;19.90;81.00;;;;;;5143263;27;20102;-67
2021/07/20 04:22:27;;;;;;;8.38;4.20;;;20.00;81.20;;;;;;5126886;27;20117;-68
2021/07/20 04:24:53;;;;;;;10.75;4.60;;;19.90;81.20;;;;;;5111772;27;20461;-65
2021/07/20 04:27:18;;;;;;;10.32;4.57;;;20.00;81.40;;;;;;5124615;28;20110;-67
2021/07/20 04:29:44;;;;;;;8.23;4.25;;;20.00;81.70;;;;;;5128589;27;20434;-66
2021/07/20 04:32:11;;;;;;;8.80;4.25;;;20.00;81.90;;;;;;5134753;27;20030;-66
2021/07/20 04:34:37;;;;;;;8.88;4.22;;;19.90;81.80;;;;;;5107392;27;20050;-66
2021/07/20 04:37:05;;;;;;;7.57;4.13;;;20.00;81.70;;;;;;5131719;27;20543;-66
2021/07/20 04:39:35;;;;;;;10.15;4.25;;;20.00;81.80;;;;;;5145581;27;20387;-67
2021/07/20 04:42:02;;;;;;;7.05;3.95;;;19.90;81.50;;;;;;5131792;27;20059;-66
2021/07/20 04:44:27;;;;;;;8.60;4.32;;;20.00;81.50;;;;;;5124999;28;20029;-67
2021/07/20 04:46:53;;;;;;;8.02;4.53;;;20.00;81.40;;;;;;5124852;28;20035;-66
2021/07/20 04:49:20;;;;;;;9.65;4.30;;;20.00;81.30;;;;;;5125381;28;20044;-67
2021/07/20 04:51:47;;;;;;;8.57;4.00;;;20.00;81.20;;;;;;5123639;28;20030;-66
2021/07/20 04:54:15;;;;;;;8.68;4.50;;;20.00;81.00;;;;;;5125162;28;20485;-66
2021/07/20 04:56:40;;;;;;;7.75;4.05;;;20.00;80.90;;;;;;5136590;27;20017;-68
2021/07/20 04:59:07;;;;;;;9.02;4.22;;;20.00;80.80;;;;;;5144982;27;20030;-65
2021/07/20 05:01:33;;;;;;;8.73;4.18;;;19.90;80.60;;;;;;5134951;27;20038;-68
2021/07/20 05:04:01;;;;;;;10.82;5.22;;;20.00;80.30;;;;;;5113100;27;20023;-68
2021/07/20 05:06:28;;;;;;;14.25;6.03;;;19.90;80.30;;;;;;5109559;27;20036;-67
2021/07/20 05:08:55;;;;;;;14.52;5.95;;;20.00;79.40;;;;;;5107463;27;20053;-68
2021/07/20 05:11:22;;;;;;;10.57;5.10;;;20.00;80.10;;;;;;5112093;27;20027;-71
2021/07/20 05:13:49;;;;;;;10.77;5.03;;;20.00;78.90;;;;;;5108359;27;20032;-69
2021/07/20 05:16:16;;;;;;;11.35;4.57;;;20.00;78.70;;;;;;5109252;27;20031;-70
2021/07/20 05:18:45;;;;;;;10.75;4.75;;;19.90;79.10;;;;;;5130437;27;20027;-70
2021/07/20 05:21:11;;;;;;;10.25;4.53;;;20.10;79.50;;;;;;5129073;27;20387;-70
2021/07/20 05:23:39;;;;;;;11.98;5.10;;;20.10;80.20;;;;;;5136334;27;20031;-70
2021/07/20 05:26:07;;;;;;;11.40;5.00;;;20.10;79.90;;;;;;5142374;27;20023;-68
2021/07/20 05:28:33;;;;;;;11.73;4.53;;;20.10;80.10;;;;;;5112870;27;20510;-73
2021/07/20 05:31:01;;;;;;;9.95;3.78;;;20.10;80.30;;;;;;5122187;27;20035;-69
2021/07/20 05:33:27;;;;;;;10.20;4.38;;;20.20;80.50;;;;;;5118130;27;20058;-71
2021/07/20 05:35:59;;;;;;;14.30;4.95;;;20.20;80.40;;;;;;5119634;27;20042;-67
2021/07/20 05:38:25;;;;;;;13.70;4.63;;;20.20;80.50;;;;;;5118356;27;20034;-68
2021/07/20 05:40:55;;;;;;;11.95;4.75;;;20.20;80.60;;;;;;5130655;27;20039;-67
2021/07/20 05:43:22;;;;;;;11.13;4.38;;;20.20;80.50;;;;;;5117106;27;20100;-68
2021/07/20 05:45:48;;;;;;;11.43;4.20;;;20.20;80.50;;;;;;5127844;27;20034;-66
2021/07/20 05:48:20;;;;;;;12.90;4.25;;;20.20;80.60;;;;;;5114151;27;20027;-67
2021/07/20 05:50:54;;;;;;;10.32;4.40;;;20.20;80.60;;;;;;5128379;27;20027;-67
2021/07/20 05:53:21;;;;;;;12.45;4.35;;;20.20;80.70;;;;;;5125560;27;20015;-67
2021/07/20 05:55:50;;;;;;;9.68;4.20;;;20.30;80.80;;;;;;5119244;27;20030;-68
2021/07/20 05:58:21;;;;;;;7.15;3.70;;;20.20;80.60;;;;;;5142241;27;20176;-68
2021/07/20 06:00:48;;;;;;;8.23;4.03;;;20.20;80.80;;;;;;5122908;27;20114;-67
2021/07/20 06:03:22;;;;;;;9.07;4.03;;;20.20;80.80;;;;;;5110082;27;20023;-68
2021/07/20 06:05:50;;;;;;;10.30;4.28;;;20.30;80.90;;;;;;5117929;27;20024;-69
2021/07/20 06:08:17;;;;;;;7.57;3.70;;;20.30;80.90;;;;;;5108073;27;20082;-68
2021/07/20 06:10:46;;;;;;;8.13;3.60;;;20.30;80.90;;;;;;5107560;27;20070;-65
2021/07/20 06:13:12;;;;;;;10.13;4.40;;;20.30;80.60;;;;;;5117468;27;20083;-74
2021/07/20 06:15:44;;;;;;;9.57;4.63;;;20.30;80.50;;;;;;5126902;27;20035;-68
2021/07/20 06:18:09;;;;;;;11.55;4.38;;;20.30;80.20;;;;;;5115981;27;20115;-67
2021/07/20 06:20:36;;;;;;;10.20;4.40;;;20.40;79.90;;;;;;5124677;27;20113;-68
2021/07/20 06:23:03;;;;;;;9.50;4.10;;;20.40;79.50;;;;;;5116418;27;20019;-68
2021/07/20 06:25:29;;;;;;;8.73;4.22;;;20.40;79.30;;;;;;5128342;27;20091;-68
2021/07/20 06:27:56;;;;;;;9.70;4.32;;;20.50;78.80;;;;;;5127367;27;20027;-69
2021/07/20 06:30:22;;;;;;;11.93;4.10;;;20.50;79.40;;;;;;5127062;27;20038;-68
2021/07/20 06:32:50;;;;;;;8.55;3.92;;;20.50;79.00;;;;;;5108930;27;20028;-67
2021/07/20 06:35:16;;;;;;;9.38;4.25;;;20.40;78.80;;;;;;5118324;27;20027;-68
2021/07/20 06:37:45;;;;;;;9.60;4.07;;;20.50;78.60;;;;;;5127955;27;20080;-69
2021/07/20 06:40:14;;;;;;;10.50;4.25;;;20.60;78.50;;;;;;5124305;27;20062;-68
2021/07/20 06:42:41;;;;;;;9.95;4.30;;;20.60;78.00;;;;;;5123570;27;20920;-68
2021/07/20 06:45:07;;;;;;;8.20;3.85;;;20.60;77.60;;;;;;5126976;27;20035;-68
2021/07/20 06:47:39;;;;;;;9.52;4.38;;;20.60;77.30;;;;;;5124688;27;20072;-68
2021/07/20 06:50:07;;;;;;;10.75;4.28;;;20.60;77.20;;;;;;5117234;27;20119;-68
2021/07/20 06:52:32;;;;;;;10.07;4.28;;;20.60;77.10;;;;;;5119854;27;20027;-68
2021/07/20 06:55:00;;;;;;;9.02;4.40;;;20.70;77.20;;;;;;5107348;28;20028;-68
2021/07/20 06:57:27;;;;;;;7.13;3.83;;;20.70;76.90;;;;;;5125200;27;20034;-67
2021/07/20 06:59:54;;;;;;;7.35;3.38;;;20.70;77.00;;;;;;5123509;27;20080;-67
2021/07/20 07:02:22;;;;;;;8.20;4.20;;;20.70;77.50;;;;;;5110555;27;20019;-68
2021/07/20 07:05:08;;;;;;;7.70;3.90;;;20.80;76.50;;;;;;5106152;27;20039;-68
2021/07/20 07:07:34;;;;;;;11.43;3.90;;;20.80;76.10;;;;;;5107852;27;20282;-67
2021/07/20 07:10:00;;;;;;;9.20;3.80;;;20.80;76.40;;;;;;5106802;28;20115;-68
2021/07/20 07:12:27;;;;;;;8.70;4.05;;;20.80;76.90;;;;;;5106153;28;20044;-68
2021/07/20 07:14:53;;;;;;;9.07;4.28;;;20.90;76.00;;;;;;5106574;28;20028;-70
2021/07/20 07:17:20;;;;;;;9.70;4.05;;;20.90;75.40;;;;;;5106504;28;20024;-68
2021/07/20 07:19:49;;;;;;;7.55;3.75;;;20.90;74.60;;;;;;5105872;28;20019;-68
2021/07/20 07:22:19;;;;;;;9.70;3.92;;;20.90;75.00;;;;;;5106275;28;20038;-69
2021/07/20 07:24:45;;;;;;;8.45;3.88;;;20.90;75.30;;;;;;5106173;28;20163;-68
2021/07/20 07:27:13;;;;;;;8.23;3.90;;;20.90;75.40;;;;;;5104583;28;20040;-66
2021/07/20 07:29:39;;;;;;;7.43;3.67;;;20.90;75.20;;;;;;5106300;28;20484;-68
2021/07/20 07:32:05;;;;;;;11.95;4.63;;;21.00;75.20;;;;;;5106583;28;20032;-67
2021/07/20 07:34:31;;;;;;;10.43;4.60;;;21.00;75.00;;;;;;5105580;28;20084;-68
2021/07/20 07:36:59;;;;;;;7.68;3.85;;;21.00;75.10;;;;;;5106262;28;20377;-68
2021/07/20 07:39:25;;;;;;;8.07;3.90;;;21.00;75.10;;;;;;5106461;28;20077;-68
2021/07/20 07:41:53;;;;;;;9.20;3.63;;;21.10;75.20;;;;;;5105300;28;20097;-68
2021/07/20 07:44:20;;;;;;;8.10;3.85;;;21.10;75.00;;;;;;5106095;28;20489;-68
2021/07/20 07:46:48;;;;;;;9.73;4.25;;;21.10;74.30;;;;;;5106108;28;20507;-68
2021/07/20 07:49:15;;;;;;;8.25;3.83;;;21.10;74.20;;;;;;5105693;28;20027;-69
2021/07/20 07:51:44;;;;;;;6.65;3.72;;;21.20;74.60;;;;;;5104396;28;20027;-67
2021/07/20 07:54:12;;;;;;;7.25;3.42;;;21.20;74.60;;;;;;5105977;28;20027;-68
2021/07/20 07:56:38;;;;;;;8.02;3.83;;;21.20;74.40;;;;;;5117571;27;20019;-68
2021/07/20 07:59:04;;;;;;;7.47;3.42;;;21.20;73.90;;;;;;5125085;27;20027;-68
2021/07/20 08:01:31;;;;;;;8.00;3.97;;;21.20;73.20;;;;;;5126333;27;20476;-68
2021/07/20 08:03:59;;;;;;;7.70;3.97;;;21.20;72.90;;;;;;5125563;27;20033;-67
2021/07/20 08:06:28;;;;;;;7.13;3.55;;;21.20;73.10;;;;;;5124667;27;20075;-69
2021/07/20 08:08:59;;;;;;;7.28;3.67;;;21.20;73.30;;;;;;5124980;27;20027;-67
2021/07/20 08:11:26;;;;;;;7.47;3.72;;;21.20;73.20;;;;;;5124488;27;20055;-69
2021/07/20 08:13:53;;;;;;;7.72;3.90;;;21.20;73.10;;;;;;5124899;27;20065;-68
2021/07/20 08:16:21;;;;;;;8.65;3.83;;;21.20;73.10;;;;;;5125655;27;20022;-68
2021/07/20 08:18:47;;;;;;;7.07;3.65;;;21.20;73.30;;;;;;5125224;27;20027;-69
2021/07/20 08:21:14;;;;;;;7.47;3.53;;;21.20;73.30;;;;;;5126295;27;20073;-67
2021/07/20 08:23:40;;;;;;;8.30;3.80;;;21.40;72.80;;;;;;5126145;27;20491;-68
2021/07/20 08:26:34;;;;;;;7.13;3.55;;;21.40;72.50;;;;;;5125399;27;20484;-68
2021/07/20 08:29:11;;;;;;;6.28;3.28;;;21.40;72.70;;;;;;5125803;27;20137;-69
2021/07/20 08:31:51;;;;;;;8.02;3.40;;;21.40;73.00;;;;;;5125885;28;20031;-68
2021/07/20 08:34:20;;;;;;;7.20;3.40;;;21.40;72.90;;;;;;5125709;27;20231;-67
2021/07/20 08:36:47;;;;;;;6.75;3.55;;;21.40;73.10;;;;;;5124415;28;20512;-66
2021/07/20 08:39:14;;;;;;;6.57;3.25;;;21.40;73.10;;;;;;5127475;27;20019;-68
2021/07/20 08:42:06;;;;;;;5.88;3.20;;;21.40;72.90;;;;;;5130050;27;20023;-69
2021/07/20 08:45:01;;;;;;;7.38;3.60;;;21.40;72.30;;;;;;5130198;27;20031;-67
2021/07/20 08:48:00;;;;;;;7.90;3.42;;;21.40;72.80;;;;;;5129311;27;20046;-67
2021/07/20 08:50:30;;;;;;;6.75;3.42;;;21.40;73.00;;;;;;5128440;27;20087;-68
2021/07/20 08:53:11;;;;;;;6.50;3.50;;;21.40;73.10;;;;;;5130025;27;20110;-67
2021/07/20 08:55:42;;;;;;;6.38;3.25;;;21.50;73.10;;;;;;5123708;27;20393;-68
2021/07/20 08:58:19;;;;;;;6.13;3.45;;;21.50;73.00;;;;;;5109362;28;20031;-68
2021/07/20 09:00:47;;;;;;;7.15;3.45;;;21.50;72.90;;;;;;5109128;28;20034;-67
2021/07/20 09:03:23;;;;;;;7.15;3.40;;;21.50;72.90;;;;;;5107236;28;20069;-68
2021/07/20 09:06:12;;;;;;;6.95;3.28;;;21.50;72.40;;;;;;5109314;28;20492;-68
2021/07/20 09:08:38;;;;;;;6.72;3.17;;;21.50;72.70;;;;;;5120877;27;20099;-68
2021/07/20 09:11:21;;;;;;;6.80;3.22;;;21.50;72.80;;;;;;5127484;27;20189;-68
2021/07/20 09:13:54;;;;;;;6.22;3.30;;;21.50;72.90;;;;;;5128319;27;20027;-68
2021/07/20 09:16:34;;;;;;;6.05;3.20;;;21.60;73.00;;;;;;5128607;27;20050;-68
2021/07/20 09:19:10;;;;;;;5.53;3.10;;;21.50;72.60;;;;;;5129695;27;20069;-67
2021/07/20 09:21:42;;;;;;;6.38;3.08;;;21.50;72.60;;;;;;5130002;27;20114;-66
2021/07/20 09:24:22;;;;;;;5.90;3.20;;;21.60;72.60;;;;;;5128882;27;20030;-69
2021/07/20 09:26:55;;;;;;;6.28;2.78;;;21.50;72.60;;;;;;5128866;27;20031;-68
2021/07/20 09:29:25;;;;;;;5.90;2.80;;;21.60;72.40;;;;;;5129457;27;20031;-68
2021/07/20 09:32:22;;;;;;;5.70;2.95;;;21.60;72.30;;;;;;5127683;27;20222;-68
2021/07/20 09:35:13;;;;;;;6.50;3.00;;;21.60;72.40;;;;;;5128945;27;20023;-68
2021/07/20 09:38:05;;;;;;;5.70;2.88;;;21.60;72.20;;;;;;5127760;27;20015;-68
2021/07/20 09:41:11;;;;;;;5.32;2.90;;;21.60;72.20;;;;;;5128425;27;20106;-70
2021/07/20 09:43:51;;;;;;;5.90;2.70;;;21.60;72.50;;;;;;5127564;27;20022;-69
2021/07/20 09:46:39;;;;;;;7.15;2.75;;;21.60;72.20;;;;;;5128234;27;20120;-68
2021/07/20 09:49:24;;;;;;;5.20;2.53;;;21.70;72.10;;;;;;5129100;27;20031;-68
2021/07/20 09:52:00;;;;;;;4.95;2.72;;;21.60;71.40;;;;;;5127672;27;20031;-69
2021/07/20 09:54:44;;;;;;;5.00;2.50;;;21.60;71.30;;;;;;5128081;27;20031;-67
2021/07/20 09:57:32;;;;;;;5.72;3.00;;;21.60;71.30;;;;;;5111401;27;20035;-68
2021/07/20 10:00:13;;;;;;;5.35;2.67;;;21.60;71.60;;;;;;5108230;28;20023;-68
2021/07/20 10:03:03;;;;;;;6.28;2.65;;;21.60;71.30;;;;;;5107555;28;20510;-67
2021/07/20 10:05:48;;;;;;;4.57;2.50;;;21.60;71.70;;;;;;5108057;28;20097;-68
2021/07/20 10:08:35;;;;;;;5.82;3.08;;;21.60;71.60;;;;;;5107185;28;20028;-68
2021/07/20 10:11:26;;;;;;;5.70;2.50;;;21.60;71.90;;;;;;5107841;28;20517;-69
2021/07/20 10:14:32;;;;;;;4.93;2.28;;;21.60;71.70;;;;;;5107876;28;20024;-69
2021/07/20 10:17:09;;;;;;;6.50;2.45;;;21.60;71.70;;;;;;5107802;28;20019;-68
2021/07/20 10:19:39;;;;;;;5.50;2.60;;;21.60;71.70;;;;;;5106617;28;20025;-68
2021/07/20 10:22:11;;;;;;;5.50;2.50;;;21.70;72.10;;;;;;5106276;28;20034;-68
2021/07/20 10:24:38;;;;;;;;;;;21.60;72.00;;;;;;5106196;28;20039;-67
2021/07/20 10:27:11;;;;;;;5.70;2.70;;;21.70;72.10;;;;;;5107299;28;19907;-68
2021/07/20 10:30:15;;;;;;;6.43;2.30;;;21.60;71.90;;;;;;5108667;27;20046;-68
2021/07/20 10:32:58;;;;;;;10.95;3.47;;;21.70;71.90;;;;;;5107417;28;20124;-68
2021/07/20 10:35:35;;;;;;;7.80;2.63;;;21.60;69.90;;;;;;5107312;28;20103;-68
2021/07/20 10:38:05;;;;;;;11.45;2.60;;;21.70;71.30;;;;;;5107250;28;20031;-68
2021/07/20 10:40:33;;;;;;;9.63;2.90;;;21.70;71.50;;;;;;5107200;28;20552;-67
2021/07/20 10:43:24;;;;;;;10.02;2.70;;;21.70;71.50;;;;;;5112716;27;20330;-67
2021/07/20 10:45:51;;;;;;;14.55;2.92;;;21.70;71.90;;;;;;5125636;27;20087;-67
2021/07/20 10:48:20;;;;;;;7.60;2.83;;;21.70;72.10;;;;;;5126371;27;20540;-69
2021/07/20 10:50:54;;;;;;;4.95;2.40;;;21.70;72.30;;;;;;5125313;27;20114;-68
2021/07/20 10:53:57;;;;;;;9.25;2.80;;;21.70;72.30;;;;;;5125376;27;20403;-68
2021/07/20 10:56:41;;;;;;;6.05;2.90;;;21.70;72.40;;;;;;5127484;27;20051;-68
2021/07/20 10:59:28;;;;;;;7.28;3.13;;;21.70;72.50;;;;;;5127588;27;20031;-68
2021/07/20 11:02:10;;;;;;;6.97;2.90;;;21.70;72.50;;;;;;5125501;27;20027;-70
2021/07/20 11:05:00;;;;;;;8.32;3.00;;;21.70;72.50;;;;;;5126881;27;20027;-67
2021/07/20 11:07:57;;;;;;;7.60;2.97;;;21.70;72.50;;;;;;5126978;27;20416;-68
2021/07/20 11:10:32;;;;;;;8.93;3.00;;;21.80;72.50;;;;;;5120821;27;20038;-69
2021/07/20 11:13:12;;;;;;;6.25;2.45;;;21.80;72.50;;;;;;5127520;27;20023;-68
2021/07/20 11:15:40;;;;;;;6.28;2.60;;;21.80;72.50;;;;;;5126562;27;20109;-68
2021/07/20 11:18:11;;;;;;;9.52;3.47;;;21.80;72.50;;;;;;5125888;27;20031;-68
2021/07/20 11:20:38;;;;;;;;;;;21.80;72.50;;;;;;5127914;27;20019;-68
2021/07/20 11:23:05;;;;;;;7.50;2.70;;;21.70;72.60;;;;;;5125204;27;19960;-67
2021/07/20 11:25:32;;;;;;;8.65;3.47;;;21.80;72.60;;;;;;5126543;27;20038;-68
2021/07/20 11:27:59;;;;;;;7.70;2.72;;;21.80;72.70;;;;;;5126949;27;20089;-68
2021/07/20 11:30:32;;;;;;;6.18;2.42;;;21.80;72.80;;;;;;5125020;27;20186;-67
2021/07/20 11:33:02;;;;;;;6.88;2.85;;;21.80;72.80;;;;;;5126615;27;20023;-68
2021/07/20 11:35:33;;;;;;;6.82;2.65;;;21.70;72.80;;;;;;5126594;27;20080;-68
2021/07/20 11:38:05;;;;;;;6.80;2.60;;;21.80;72.80;;;;;;5126366;27;20072;-69
2021/07/20 11:40:38;;;;;;;7.15;2.50;;;21.80;72.70;;;;;;5126458;27;20400;-67
2021/07/20 11:43:08;;;;;;;5.20;2.63;;;21.80;72.70;;;;;;5126607;27;20030;-67
2021/07/20 11:45:55;;;;;;;6.22;2.53;;;21.80;72.60;;;;;;5125974;27;20391;-68
2021/07/20 11:48:21;;;;;;;6.40;2.40;;;21.80;72.50;;;;;;5126497;27;20106;-69
2021/07/20 11:50:57;;;;;;;5.97;2.42;;;21.80;72.50;;;;;;5126225;27;20110;-68
2021/07/20 11:54:05;;;;;;;6.20;2.70;;;21.80;72.40;;;;;;5124579;27;20030;-69
2021/07/20 11:56:36;;;;;;;7.37;2.93;;;21.80;72.40;;;;;;5062246;28;20494;-68
2021/07/20 11:59:17;;;;;;;5.88;2.65;;;21.90;72.50;;;;;;5062405;28;20063;-69
2021/07/20 12:02:01;;;;;;;5.82;2.90;;;21.90;72.40;;;;;;5088815;28;20044;-69
2021/07/20 12:05:04;;;;;;;5.65;2.30;;;21.90;72.40;;;;;;5105473;28;20043;-69
2021/07/20 12:07:43;;;;;;;5.78;2.45;;;21.90;72.20;;;;;;5103696;28;20027;-70
2021/07/20 12:10:27;;;;;;;6.80;2.80;;;21.90;72.40;;;;;;5105898;28;20042;-68
2021/07/20 12:12:54;;;;;;;7.13;3.10;;;21.90;72.30;;;;;;5105423;28;20046;-68
2021/07/20 12:15:22;;;;;;;8.07;2.72;;;22.00;72.40;;;;;;5102923;28;20153;-69
2021/07/20 12:17:49;;;;;;;5.82;2.50;;;22.00;72.20;;;;;;5105626;28;20051;-68
2021/07/20 12:20:17;;;;;;;5.07;2.35;;;22.00;72.20;;;;;;5105585;28;20435;-69
2021/07/20 12:22:49;;;;;;;5.95;2.65;;;22.00;72.30;;;;;;5104907;28;20110;-68
2021/07/20 12:25:15;;;;;;;6.82;2.80;;;22.00;72.10;;;;;;5105363;28;20023;-67
2021/07/20 12:27:41;;;;;;;5.47;2.70;;;22.00;72.20;;;;;;5105512;28;20397;-68
2021/07/20 12:30:13;;;;;;;5.22;2.55;;;22.00;72.20;;;;;;5103694;28;20416;-67
2021/07/20 12:32:41;;;;;;;7.55;2.55;;;22.00;72.10;;;;;;5105869;28;20036;-67
2021/07/20 12:35:11;;;;;;;5.88;2.55;;;22.00;72.10;;;;;;5105022;28;20027;-68
2021/07/20 12:37:39;;;;;;;6.00;2.60;;;22.00;72.10;;;;;;5104665;28;20024;-68
2021/07/20 12:40:10;;;;;;;6.18;3.08;;;22.00;72.10;;;;;;5103799;28;20019;-65
2021/07/20 12:42:40;;;;;;;5.00;2.45;;;22.00;72.00;;;;;;5105192;28;20159;-68
2021/07/20 12:45:11;;;;;;;5.53;2.58;;;22.00;72.10;;;;;;5104485;28;20035;-68
2021/07/20 12:47:48;;;;;;;6.80;2.45;;;22.10;72.10;;;;;;5103606;28;20031;-66
2021/07/20 12:50:19;;;;;;;6.05;2.47;;;22.10;72.10;;;;;;5104108;28;20408;-66
2021/07/20 12:52:47;;;;;;;5.63;2.70;;;22.10;72.00;;;;;;5104260;28;20111;-66
2021/07/20 12:55:20;;;;;;;6.03;2.55;;;22.10;72.10;;;;;;5105568;28;20039;-66
2021/07/20 12:57:54;;;;;;;6.15;2.58;;;22.10;72.10;;;;;;5125920;28;20023;-68
2021/07/20 13:00:23;;;;;;;5.55;2.53;;;22.10;72.00;;;;;;5125102;28;20051;-67
2021/07/20 13:02:53;;;;;;;4.97;2.60;;;22.10;72.00;;;;;;5125191;27;20038;-66
2021/07/20 13:05:22;;;;;;;5.55;2.45;;;22.10;72.00;;;;;;5123813;27;20373;-69
2021/07/20 13:07:50;;;;;;;6.10;2.58;;;22.10;72.00;;;;;;5125450;27;20114;-66
2021/07/20 13:10:16;;;;;;;6.30;2.60;;;22.10;71.90;;;;;;5124241;28;20039;-67